createdAt,value
2022-11-19T00:36:06.679Z,23.33
2022-11-19T00:38:34.930Z,29.67
2022-11-19T00:41:02.959Z,26.45
2022-11-19T05:29:02.154Z,9.15
2022-11-19T10:08:28.566Z,10.25
2022-11-19T10:11:17.110Z,10.00
2022-11-19T10:13:59.962Z,10.48
2022-11-19T10:16:27.620Z,10.82
2022-11-19T10:19:16.456Z,10.70
2022-11-19T10:22:08.616Z,9.23
2022-11-19T10:25:10.541Z,9.45
2022-11-19T10:27:52.517Z,12.07
2022-11-19T10:30:23.958Z,10.65
2022-11-19T10:33:13.933Z,11.50
2022-11-19T10:35:55.268Z,12.90
2022-11-19T10:38:34.258Z,10.57
2022-11-19T10:41:14.147Z,11.18
2022-11-19T10:43:48.485Z,8.50
2022-11-19T10:46:20.720Z,9.85
2022-11-19T10:48:52.079Z,8.48
2022-11-19T10:51:28.504Z,9.63
2022-11-19T10:53:57.550Z,11.48
2022-11-19T10:56:40.259Z,8.77
2022-11-19T10:59:18.729Z,9.80
2022-11-19T11:01:53.038Z,9.48
2022-11-19T11:04:26.491Z,11.07
2022-11-19T11:07:00.009Z,11.30
2022-11-19T11:09:52.887Z,10.25
2022-11-19T11:12:43.095Z,11.07
2022-11-19T11:15:20.533Z,9.75
2022-11-19T11:18:00.893Z,9.20
2022-11-19T11:20:30.310Z,12.60
2022-11-19T11:23:22.592Z,12.00
2022-11-19T11:26:12.439Z,11.20
2022-11-19T11:29:02.046Z,8.88
2022-11-19T11:31:45.450Z,10.30
2022-11-19T11:34:33.653Z,10.90
2022-11-19T11:37:04.011Z,8.77
2022-11-19T11:39:34.934Z,12.27
2022-11-19T11:42:06.003Z,12.00
2022-11-19T11:44:37.152Z,11.90
2022-11-19T11:47:13.505Z,14.32
2022-11-19T11:49:46.892Z,15.15
2022-11-19T11:52:54.599Z,12.68
2022-11-19T11:55:25.034Z,13.10
2022-11-19T11:57:56.357Z,12.23
2022-11-19T12:00:41.063Z,11.20
2022-11-19T12:03:14.053Z,10.73
2022-11-19T12:06:02.522Z,13.05
2022-11-19T12:08:44.972Z,12.25
2022-11-19T12:11:50.647Z,13.85
2022-11-19T12:14:25.486Z,11.80
2022-11-19T12:17:00.997Z,12.68
2022-11-19T12:19:43.525Z,10.27
2022-11-19T12:22:16.951Z,14.77
2022-11-19T12:25:02.983Z,12.05
2022-11-19T12:27:38.143Z,12.57
2022-11-19T12:30:06.346Z,11.20
2022-11-19T12:32:58.120Z,9.98
2022-11-19T12:35:54.649Z,11.07
2022-11-19T12:38:52.172Z,11.30
2022-11-19T12:41:40.724Z,11.65
2022-11-19T12:44:22.686Z,11.00
2022-11-19T12:47:03.987Z,11.77
2022-11-19T12:49:40.545Z,12.70
2022-11-19T12:52:15.806Z,11.60
2022-11-19T12:55:04.742Z,13.55
2022-11-19T12:57:43.926Z,11.57
2022-11-19T13:00:23.268Z,12.45
2022-11-19T13:02:57.234Z,12.13
2022-11-19T13:05:34.494Z,15.20
2022-11-19T13:08:12.532Z,12.30
2022-11-19T13:10:46.588Z,12.27
2022-11-19T13:13:18.878Z,15.13
2022-11-19T13:15:57.912Z,14.43
2022-11-19T13:18:29.976Z,12.77
2022-11-19T13:21:02.930Z,13.43
2022-11-19T13:23:38.767Z,12.07
2022-11-19T13:26:11.398Z,14.65
2022-11-19T13:28:47.226Z,12.40
2022-11-19T13:31:24.472Z,13.07
2022-11-19T13:33:58.819Z,16.02
2022-11-19T13:36:58.887Z,14.93
2022-11-19T13:39:56.392Z,16.63
2022-11-19T13:42:43.752Z,12.32
2022-11-19T13:45:15.872Z,15.27
2022-11-19T13:47:58.388Z,14.88
2022-11-19T13:50:27.938Z,13.02
2022-11-19T13:53:06.097Z,15.45
2022-11-19T13:55:38.060Z,14.70
2022-11-19T13:58:14.445Z,14.25
2022-11-19T14:00:57.445Z,14.40
2022-11-19T14:03:57.946Z,16.00
2022-11-19T14:06:52.301Z,15.02
2022-11-19T14:09:46.147Z,15.32
2022-11-19T14:12:31.416Z,17.17
2022-11-19T14:15:49.565Z,15.48
2022-11-19T14:18:53.056Z,14.50
2022-11-19T14:21:43.171Z,15.43
2022-11-19T14:24:49.218Z,15.70
2022-11-19T14:27:26.505Z,14.52
2022-11-19T14:30:04.843Z,15.15
2022-11-19T14:32:46.333Z,18.00
2022-11-19T14:35:23.321Z,19.52
2022-11-19T14:37:56.821Z,16.67
2022-11-19T14:40:28.001Z,17.15
2022-11-19T14:43:32.641Z,16.50
2022-11-19T14:46:03.154Z,15.60
2022-11-19T14:48:33.950Z,19.63
2022-11-19T14:51:07.231Z,17.38
2022-11-19T14:53:39.697Z,18.35
2022-11-19T14:56:15.685Z,19.10
2022-11-19T14:59:40.507Z,17.20
2022-11-19T15:26:21.305Z,19.60
2022-11-19T15:30:07.071Z,21.63
2022-11-19T15:34:01.082Z,21.88
2022-11-19T15:36:52.489Z,21.65
2022-11-19T15:40:15.380Z,22.63
2022-11-19T15:47:38.555Z,22.85
2022-11-19T15:54:37.521Z,22.65
2022-11-19T15:57:17.170Z,22.88
2022-11-19T15:59:48.488Z,23.77
2022-11-19T16:02:22.856Z,23.27
2022-11-19T16:04:51.258Z,22.50
2022-11-19T16:07:24.799Z,27.58
2022-11-19T16:09:53.069Z,24.27
2022-11-19T16:12:43.856Z,20.48
2022-11-19T16:33:22.456Z,24.02
2022-11-19T16:35:53.461Z,22.60
2022-11-19T16:38:51.645Z,22.42
2022-11-19T16:41:40.409Z,26.23
2022-11-19T16:44:18.480Z,21.38
2022-11-19T16:46:49.969Z,20.25
2022-11-19T16:49:31.072Z,21.95
2022-11-19T17:18:57.727Z,21.20
2022-11-19T18:17:13.512Z,16.70
2022-11-19T18:20:51.491Z,9.07
2022-11-19T19:09:57.219Z,4.65
2022-11-19T19:12:42.586Z,4.40
2022-11-19T19:15:12.613Z,5.00
2022-11-19T19:22:13.821Z,4.47
2022-11-19T19:28:23.376Z,3.38
2022-11-19T19:43:57.990Z,3.92
2022-11-19T19:50:20.258Z,4.13
2022-11-19T19:52:50.809Z,3.80
2022-11-19T19:55:26.152Z,3.75
2022-11-19T19:57:54.461Z,4.10
2022-11-19T20:00:23.880Z,3.95
2022-11-19T20:02:51.458Z,4.07
2022-11-19T20:05:19.148Z,5.93
2022-11-19T20:07:46.863Z,4.65
2022-11-19T20:10:15.148Z,5.10
2022-11-19T20:13:01.508Z,6.18
2022-11-19T20:15:29.085Z,6.47
2022-11-19T20:17:56.782Z,6.55
2022-11-19T20:20:24.495Z,5.75
2022-11-19T20:22:52.136Z,5.85
2022-11-19T20:25:19.652Z,4.55
2022-11-19T20:27:47.360Z,4.88
2022-11-19T20:30:16.088Z,4.45
2022-11-19T20:32:43.786Z,4.40
2022-11-19T20:35:11.548Z,4.43
2022-11-19T20:37:40.621Z,4.78
2022-11-19T20:40:09.174Z,4.40
2022-11-19T20:42:54.972Z,4.97
2022-11-19T20:45:25.466Z,5.90
2022-11-19T20:47:53.267Z,6.15
2022-11-19T20:50:20.975Z,7.03
2022-11-19T20:52:48.447Z,6.60
2022-11-19T20:55:16.247Z,6.13
2022-11-19T20:57:43.658Z,6.35
2022-11-19T21:00:12.388Z,5.53
2022-11-19T21:02:39.832Z,5.10
2022-11-19T21:05:07.772Z,6.60
2022-11-19T21:07:35.303Z,5.95
2022-11-19T21:10:07.603Z,7.00
2022-11-19T21:12:35.468Z,7.63
2022-11-19T21:15:03.195Z,6.18
2022-11-19T21:17:30.749Z,4.50
2022-11-19T21:19:58.220Z,6.90
2022-11-19T21:22:25.894Z,5.88
2022-11-19T21:24:53.894Z,4.43
2022-11-19T21:27:21.441Z,6.07
2022-11-19T21:29:49.003Z,5.72
2022-11-19T21:32:16.477Z,5.43
2022-11-19T21:34:44.014Z,7.03
2022-11-19T21:37:11.514Z,5.28
2022-11-19T21:39:39.036Z,5.10
2022-11-19T21:42:06.468Z,5.40
2022-11-19T21:44:33.950Z,5.38
2022-11-19T21:47:02.741Z,5.60
2022-11-19T21:49:30.268Z,5.35
2022-11-19T21:51:57.896Z,5.03
2022-11-19T21:54:25.301Z,5.38
2022-11-19T21:56:52.743Z,6.25
2022-11-19T21:59:20.487Z,5.93
2022-11-19T22:01:51.869Z,5.35
2022-11-19T22:04:22.212Z,6.18
2022-11-19T22:06:49.671Z,5.57
2022-11-19T22:09:17.377Z,5.28
2022-11-19T22:11:45.033Z,5.68
2022-11-19T22:14:12.900Z,4.68
2022-11-19T22:16:40.640Z,5.95
2022-11-19T22:19:10.318Z,6.25
2022-11-19T22:21:37.780Z,5.45
2022-11-19T22:24:05.705Z,5.43
2022-11-19T22:26:33.201Z,5.25
2022-11-19T22:29:00.742Z,4.97
2022-11-19T22:31:28.199Z,7.30
2022-11-19T22:33:55.750Z,5.18
2022-11-19T22:36:23.463Z,6.90
2022-11-19T22:38:51.930Z,7.32
2022-11-19T22:41:21.054Z,7.20
2022-11-19T22:43:49.400Z,14.27
2022-11-19T22:46:17.923Z,11.57
2022-11-19T22:48:45.485Z,13.00
2022-11-19T22:51:15.550Z,11.85
2022-11-19T22:53:43.193Z,11.68
2022-11-19T22:56:12.407Z,11.73
2022-11-19T22:58:39.915Z,9.98
2022-11-19T23:01:27.451Z,12.02
2022-11-19T23:03:56.311Z,11.02
2022-11-19T23:06:24.306Z,11.85
2022-11-19T23:08:52.139Z,10.23
2022-11-19T23:11:42.378Z,11.60
2022-11-19T23:14:12.808Z,9.85
2022-11-19T23:16:41.346Z,9.95
2022-11-19T23:19:10.131Z,11.05
2022-11-19T23:21:38.043Z,9.05
2022-11-19T23:24:06.204Z,9.70
2022-11-19T23:26:34.524Z,9.18
2022-11-19T23:29:02.398Z,10.15
2022-11-19T23:31:33.104Z,8.82
2022-11-19T23:34:00.949Z,9.27
2022-11-19T23:36:38.035Z,10.13
2022-11-19T23:39:09.672Z,10.45
2022-11-19T23:41:37.309Z,12.43
2022-11-19T23:44:04.844Z,9.38
2022-11-19T23:46:34.686Z,11.57
2022-11-19T23:49:03.357Z,10.05
2022-11-19T23:51:36.710Z,9.57
2022-11-19T23:54:05.507Z,10.48
2022-11-19T23:56:36.366Z,9.25
2022-11-19T23:59:06.032Z,9.18
